Cocal, Brazil
Current Conditions -  °F | °C
As of 5:00 PM on Friday 19 Dec 2014 (Local Time) from SBPB Reporting Station
Clear Clear  
Wind Chill: 88°   Ceiling: Unl
Heat Index: 96°   Visibility: 6mi
Dew Point: 73°   Wind: 22mph
Humidity: 62%   Direction: 70°ENE
Pressure: 29.8"   Gusts: NA
Location:  3.47°S, 41.56°W
Report Text: SBPB 192000Z 07019KT CAVOK 31/23 Q1009
Loading
Personal Weather Stations






























Interactive Weather Map New forecast layout! Learn more

10-Day Weather Forecast

Advertisements
Track Severe Weather on mobile